sensor_id;sensor_type;location;lat;lon;timestamp;pressure;altitude;pressure_sealevel;temperature;humidity
23419;BME280;11882;42.522;27.458;2024-02-15T00:01:35;101545.22;;;8.26;72.68
23419;BME280;11882;42.522;27.458;2024-02-15T00:04:03;101537.81;;;8.30;72.87
23419;BME280;11882;42.522;27.458;2024-02-15T00:06:31;101540.22;;;8.23;72.89
23419;BME280;11882;42.522;27.458;2024-02-15T00:08:58;101547.75;;;8.18;73.21
23419;BME280;11882;42.522;27.458;2024-02-15T00:11:25;101544.69;;;8.13;73.70
23419;BME280;11882;42.522;27.458;2024-02-15T00:13:53;101552.06;;;8.29;73.30
23419;BME280;11882;42.522;27.458;2024-02-15T00:16:23;101547.91;;;8.36;73.27
23419;BME280;11882;42.522;27.458;2024-02-15T00:18:50;101547.75;;;8.18;73.45
23419;BME280;11882;42.522;27.458;2024-02-15T00:21:18;101545.09;;;8.18;73.64
23419;BME280;11882;42.522;27.458;2024-02-15T00:23:45;101535.88;;;8.32;73.68
23419;BME280;11882;42.522;27.458;2024-02-15T00:26:12;101530.56;;;8.32;73.49
23419;BME280;11882;42.522;27.458;2024-02-15T00:28:41;101528.75;;;8.23;73.62
23419;BME280;11882;42.522;27.458;2024-02-15T00:31:08;101525.97;;;8.24;73.73
23419;BME280;11882;42.522;27.458;2024-02-15T00:33:37;101534.34;;;8.29;73.77
23419;BME280;11882;42.522;27.458;2024-02-15T00:36:05;101525.81;;;8.26;73.36
23419;BME280;11882;42.522;27.458;2024-02-15T00:38:32;101514.13;;;8.19;73.05
23419;BME280;11882;42.522;27.458;2024-02-15T00:41:00;101520.81;;;8.23;73.12
23419;BME280;11882;42.522;27.458;2024-02-15T00:43:28;101516.59;;;8.30;71.85
23419;BME280;11882;42.522;27.458;2024-02-15T00:45:55;101520.38;;;8.27;72.29
23419;BME280;11882;42.522;27.458;2024-02-15T00:48:22;101515.50;;;8.23;72.26
23419;BME280;11882;42.522;27.458;2024-02-15T00:50:53;101516.91;;;8.17;72.40
23419;BME280;11882;42.522;27.458;2024-02-15T00:53:20;101527.50;;;8.27;71.52
23419;BME280;11882;42.522;27.458;2024-02-15T00:55:47;101520.53;;;8.26;71.24
23419;BME280;11882;42.522;27.458;2024-02-15T00:58:14;101518.88;;;8.15;71.19
23419;BME280;11882;42.522;27.458;2024-02-15T01:00:42;101514.00;;;8.11;71.66
23419;BME280;11882;42.522;27.458;2024-02-15T01:03:09;101519.97;;;8.22;71.30
23419;BME280;11882;42.522;27.458;2024-02-15T01:05:36;101518.16;;;8.23;70.31
23419;BME280;11882;42.522;27.458;2024-02-15T01:08:05;101516.94;;;8.07;70.79
23419;BME280;11882;42.522;27.458;2024-02-15T01:10:34;101515.25;;;8.06;71.30
23419;BME280;11882;42.522;27.458;2024-02-15T01:13:02;101517.34;;;8.13;70.38
23419;BME280;11882;42.522;27.458;2024-02-15T01:15:29;101531.31;;;8.05;70.60
23419;BME280;11882;42.522;27.458;2024-02-15T01:17:56;101525.03;;;7.96;70.58
23419;BME280;11882;42.522;27.458;2024-02-15T01:20:23;101538.28;;;7.87;71.38
23419;BME280;11882;42.522;27.458;2024-02-15T01:22:51;101533.69;;;7.98;71.58
23419;BME280;11882;42.522;27.458;2024-02-15T01:25:20;101542.75;;;8.05;70.90
23419;BME280;11882;42.522;27.458;2024-02-15T01:27:47;101543.31;;;7.99;70.93
23419;BME280;11882;42.522;27.458;2024-02-15T01:30:14;101544.97;;;7.81;71.33
23419;BME280;11882;42.522;27.458;2024-02-15T01:32:41;101539.41;;;7.84;71.30
23419;BME280;11882;42.522;27.458;2024-02-15T01:35:09;101533.69;;;7.89;71.05
23419;BME280;11882;42.522;27.458;2024-02-15T01:37:36;101532.84;;;7.88;71.37
23419;BME280;11882;42.522;27.458;2024-02-15T01:40:05;101532.56;;;7.82;71.11
23419;BME280;11882;42.522;27.458;2024-02-15T01:42:34;101541.91;;;7.86;71.52
23419;BME280;11882;42.522;27.458;2024-02-15T01:45:02;101540.09;;;7.96;71.04
23419;BME280;11882;42.522;27.458;2024-02-15T01:47:30;101540.09;;;7.86;70.93
23419;BME280;11882;42.522;27.458;2024-02-15T01:49:58;101541.06;;;7.85;71.13
23419;BME280;11882;42.522;27.458;2024-02-15T01:52:25;101543.03;;;7.83;72.07
23419;BME280;11882;42.522;27.458;2024-02-15T01:54:54;101541.91;;;7.95;71.35
23419;BME280;11882;42.522;27.458;2024-02-15T01:57:21;101536.31;;;7.98;71.33
23419;BME280;11882;42.522;27.458;2024-02-15T01:59:51;101539.69;;;7.81;72.11
23419;BME280;11882;42.522;27.458;2024-02-15T02:02:20;101535.06;;;7.73;72.13
23419;BME280;11882;42.522;27.458;2024-02-15T02:04:50;101538.16;;;7.88;72.38
23419;BME280;11882;42.522;27.458;2024-02-15T02:07:17;101536.47;;;7.87;72.15
23419;BME280;11882;42.522;27.458;2024-02-15T02:09:46;101543.31;;;7.80;72.09
23419;BME280;11882;42.522;27.458;2024-02-15T02:12:14;101541.91;;;7.66;72.40
23419;BME280;11882;42.522;27.458;2024-02-15T02:14:43;101533.97;;;7.76;72.62
23419;BME280;11882;42.522;27.458;2024-02-15T02:17:12;101535.09;;;7.83;71.67
23419;BME280;11882;42.522;27.458;2024-02-15T02:19:41;101539.81;;;7.70;72.18
23419;BME280;11882;42.522;27.458;2024-02-15T02:22:09;101543.72;;;7.66;72.19
23419;BME280;11882;42.522;27.458;2024-02-15T02:24:43;101535.63;;;7.77;72.66
23419;BME280;11882;42.522;27.458;2024-02-15T02:27:15;101542.06;;;7.84;72.14
23419;BME280;11882;42.522;27.458;2024-02-15T02:29:43;101540.66;;;7.80;72.07
23419;BME280;11882;42.522;27.458;2024-02-15T02:32:12;101540.50;;;7.62;72.87
23419;BME280;11882;42.522;27.458;2024-02-15T02:34:39;101542.03;;;7.55;73.25
23419;BME280;11882;42.522;27.458;2024-02-15T02:37:07;101539.41;;;7.74;72.87
23419;BME280;11882;42.522;27.458;2024-02-15T02:39:34;101538.97;;;7.79;71.94
23419;BME280;11882;42.522;27.458;2024-02-15T02:42:01;101551.09;;;7.72;71.99
23419;BME280;11882;42.522;27.458;2024-02-15T02:44:30;101539.81;;;7.60;72.29
23419;BME280;11882;42.522;27.458;2024-02-15T02:46:57;101544.69;;;7.74;72.38
23419;BME280;11882;42.522;27.458;2024-02-15T02:49:24;101538.00;;;7.80;71.92
23419;BME280;11882;42.522;27.458;2024-02-15T02:51:51;101544.41;;;7.78;71.71
23419;BME280;11882;42.522;27.458;2024-02-15T02:54:19;101539.81;;;7.60;73.01
23419;BME280;11882;42.522;27.458;2024-02-15T02:56:46;101547.47;;;7.63;72.69
23419;BME280;11882;42.522;27.458;2024-02-15T02:59:13;101544.41;;;7.78;71.82
23419;BME280;11882;42.522;27.458;2024-02-15T03:01:43;101545.25;;;7.78;71.77
23419;BME280;11882;42.522;27.458;2024-02-15T03:04:10;101545.94;;;7.70;72.14
23419;BME280;11882;42.522;27.458;2024-02-15T03:06:42;101549.00;;;7.56;72.45
23419;BME280;11882;42.522;27.458;2024-02-15T03:09:10;101535.34;;;7.70;72.80
23419;BME280;11882;42.522;27.458;2024-02-15T03:11:40;101540.78;;;7.69;72.75
23419;BME280;11882;42.522;27.458;2024-02-15T03:14:08;101533.97;;;7.66;72.59
23419;BME280;11882;42.522;27.458;2024-02-15T03:16:35;101532.97;;;7.48;72.66
23419;BME280;11882;42.522;27.458;2024-02-15T03:19:03;101529.50;;;7.57;73.27
23419;BME280;11882;42.522;27.458;2024-02-15T03:21:30;101544.28;;;7.60;72.51
23419;BME280;11882;42.522;27.458;2024-02-15T03:23:58;101549.69;;;7.58;72.50
23419;BME280;11882;42.522;27.458;2024-02-15T03:26:30;101535.06;;;7.54;72.79
23419;BME280;11882;42.522;27.458;2024-02-15T03:28:59;101544.66;;;7.46;73.15
23419;BME280;11882;42.522;27.458;2024-02-15T03:31:28;101545.78;;;7.53;72.93
23419;BME280;11882;42.522;27.458;2024-02-15T03:33:56;101547.91;;;7.59;72.59
23419;BME280;11882;42.522;27.458;2024-02-15T03:36:26;101532.25;;;7.46;73.33
23419;BME280;11882;42.522;27.458;2024-02-15T03:38:55;101535.59;;;7.29;74.08
23419;BME280;11882;42.522;27.458;2024-02-15T03:41:26;101530.16;;;7.30;74.77
23419;BME280;11882;42.522;27.458;2024-02-15T03:43:54;101533.78;;;7.39;74.49
23419;BME280;11882;42.522;27.458;2024-02-15T03:46:21;101540.06;;;7.38;74.21
23419;BME280;11882;42.522;27.458;2024-02-15T03:48:49;101543.38;;;7.30;74.51
23419;BME280;11882;42.522;27.458;2024-02-15T03:51:16;101539.59;;;7.23;74.28
23419;BME280;11882;42.522;27.458;2024-02-15T03:53:45;101542.69;;;7.38;73.97
23419;BME280;11882;42.522;27.458;2024-02-15T03:56:14;101539.25;;;7.47;73.84
23419;BME280;11882;42.522;27.458;2024-02-15T03:58:58;101550.81;;;7.46;73.60
23419;BME280;11882;42.522;27.458;2024-02-15T04:01:29;101544.50;;;7.37;74.36
23419;BME280;11882;42.522;27.458;2024-02-15T04:03:59;101543.97;;;7.43;74.40
23419;BME280;11882;42.522;27.458;2024-02-15T04:06:27;101546.91;;;7.60;73.25
23419;BME280;11882;42.522;27.458;2024-02-15T04:08:58;101544.53;;;7.57;73.54
23419;BME280;11882;42.522;27.458;2024-02-15T04:11:25;101548.56;;;7.41;74.20
23419;BME280;11882;42.522;27.458;2024-02-15T04:13:52;101547.88;;;7.39;74.50
23419;BME280;11882;42.522;27.458;2024-02-15T04:16:19;101542.88;;;7.56;73.73
23419;BME280;11882;42.522;27.458;2024-02-15T04:18:46;101544.81;;;7.63;73.38
23419;BME280;11882;42.522;27.458;2024-02-15T04:21:13;101548.16;;;7.56;72.97
23419;BME280;11882;42.522;27.458;2024-02-15T04:23:45;101536.03;;;7.43;73.59
23419;BME280;11882;42.522;27.458;2024-02-15T04:26:14;101547.47;;;7.54;73.89
23419;BME280;11882;42.522;27.458;2024-02-15T04:28:41;101543.56;;;7.67;73.07
23419;BME280;11882;42.522;27.458;2024-02-15T04:31:08;101540.66;;;7.61;72.91
23419;BME280;11882;42.522;27.458;2024-02-15T04:33:38;101551.09;;;7.53;73.45
23419;BME280;11882;42.522;27.458;2024-02-15T04:36:05;101549.00;;;7.47;74.17
23419;BME280;11882;42.522;27.458;2024-02-15T04:38:33;101550.81;;;7.56;74.00
23419;BME280;11882;42.522;27.458;2024-02-15T04:41:00;101557.09;;;7.64;73.23
23419;BME280;11882;42.522;27.458;2024-02-15T04:43:30;101555.84;;;7.59;73.75
23419;BME280;11882;42.522;27.458;2024-02-15T04:45:59;101567.66;;;7.45;73.85
23419;BME280;11882;42.522;27.458;2024-02-15T04:48:26;101563.09;;;7.57;74.09
23419;BME280;11882;42.522;27.458;2024-02-15T04:50:54;101560.03;;;7.61;73.13
23419;BME280;11882;42.522;27.458;2024-02-15T04:53:24;101562.94;;;7.58;72.74
23419;BME280;11882;42.522;27.458;2024-02-15T04:55:52;101557.06;;;7.45;73.24
23419;BME280;11882;42.522;27.458;2024-02-15T04:58:20;101564.88;;;7.47;72.66
23419;BME280;11882;42.522;27.458;2024-02-15T05:00:49;101555.84;;;7.59;72.87
23419;BME280;11882;42.522;27.458;2024-02-15T05:03:19;101559.47;;;7.58;72.88
23419;BME280;11882;42.522;27.458;2024-02-15T05:05:46;101553.75;;;7.53;72.18
23419;BME280;11882;42.522;27.458;2024-02-15T05:08:13;101561.53;;;7.44;72.44
23419;BME280;11882;42.522;27.458;2024-02-15T05:10:40;101562.94;;;7.49;73.03
23419;BME280;11882;42.522;27.458;2024-02-15T05:13:08;101568.09;;;7.60;72.67
23419;BME280;11882;42.522;27.458;2024-02-15T05:15:40;101572.00;;;7.56;72.17
23419;BME280;11882;42.522;27.458;2024-02-15T05:18:08;101565.44;;;7.50;72.37
23419;BME280;11882;42.522;27.458;2024-02-15T05:20:36;101570.88;;;7.49;73.22
23419;BME280;11882;42.522;27.458;2024-02-15T05:23:04;101578.97;;;7.57;72.85
23419;BME280;11882;42.522;27.458;2024-02-15T05:25:31;101578.69;;;7.60;72.37
23419;BME280;11882;42.522;27.458;2024-02-15T05:27:58;101579.09;;;7.46;73.10
23419;BME280;11882;42.522;27.458;2024-02-15T05:30:25;101589.81;;;7.44;73.56
23419;BME280;11882;42.522;27.458;2024-02-15T05:32:53;101588.03;;;7.54;73.07
23419;BME280;11882;42.522;27.458;2024-02-15T05:35:21;101596.81;;;7.55;72.92
23419;BME280;11882;42.522;27.458;2024-02-15T05:37:50;101603.50;;;7.49;73.69
23419;BME280;11882;42.522;27.458;2024-02-15T05:40:18;101601.94;;;7.47;73.85
23419;BME280;11882;42.522;27.458;2024-02-15T05:42:45;101605.31;;;7.58;72.98
23419;BME280;11882;42.522;27.458;2024-02-15T05:45:28;101614.53;;;7.64;72.60
23419;BME280;11882;42.522;27.458;2024-02-15T05:48:05;101610.91;;;7.55;73.04
23419;BME280;11882;42.522;27.458;2024-02-15T05:50:39;101616.69;;;7.39;73.02
23419;BME280;11882;42.522;27.458;2024-02-15T05:53:06;101611.03;;;7.54;73.12
23419;BME280;11882;42.522;27.458;2024-02-15T05:55:34;101619.00;;;7.63;72.92
23419;BME280;11882;42.522;27.458;2024-02-15T05:58:03;101623.56;;;7.52;73.08
23419;BME280;11882;42.522;27.458;2024-02-15T06:00:30;101635.38;;;7.38;73.70
23419;BME280;11882;42.522;27.458;2024-02-15T06:02:59;101629.56;;;7.54;73.15
23419;BME280;11882;42.522;27.458;2024-02-15T06:05:28;101633.34;;;7.61;72.97
23419;BME280;11882;42.522;27.458;2024-02-15T06:07:57;101629.44;;;7.55;73.43
23419;BME280;11882;42.522;27.458;2024-02-15T06:10:24;101637.06;;;7.49;73.79
23419;BME280;11882;42.522;27.458;2024-02-15T06:12:52;101639.88;;;7.57;73.46
23419;BME280;11882;42.522;27.458;2024-02-15T06:15:20;101652.19;;;7.67;73.21
23419;BME280;11882;42.522;27.458;2024-02-15T06:17:49;101651.22;;;7.68;72.80
23419;BME280;11882;42.522;27.458;2024-02-15T06:20:16;101653.41;;;7.54;73.32
23419;BME280;11882;42.522;27.458;2024-02-15T06:22:45;101656.06;;;7.63;73.49
23419;BME280;11882;42.522;27.458;2024-02-15T06:25:14;101663.22;;;7.72;72.93
23419;BME280;11882;42.522;27.458;2024-02-15T06:27:46;101668.66;;;7.71;72.70
23419;BME280;11882;42.522;27.458;2024-02-15T06:30:14;101665.69;;;7.64;73.03
23419;BME280;11882;42.522;27.458;2024-02-15T06:32:59;101673.66;;;7.64;72.48
23419;BME280;11882;42.522;27.458;2024-02-15T06:35:43;101679.41;;;7.79;72.61
23419;BME280;11882;42.522;27.458;2024-02-15T06:38:28;101669.50;;;7.81;72.22
23419;BME280;11882;42.522;27.458;2024-02-15T06:41:14;101673.25;;;7.69;72.65
23419;BME280;11882;42.522;27.458;2024-02-15T06:43:41;101676.59;;;7.71;72.53
23419;BME280;11882;42.522;27.458;2024-02-15T06:46:08;101665.88;;;7.82;71.87
23419;BME280;11882;42.522;27.458;2024-02-15T06:48:36;101665.34;;;7.88;71.16
23419;BME280;11882;42.522;27.458;2024-02-15T06:51:04;101667.13;;;7.78;71.47
23419;BME280;11882;42.522;27.458;2024-02-15T06:53:33;101659.88;;;7.80;72.02
23419;BME280;11882;42.522;27.458;2024-02-15T06:56:00;101671.19;;;7.92;72.03
23419;BME280;11882;42.522;27.458;2024-02-15T06:58:29;101661.72;;;7.99;70.96
23419;BME280;11882;42.522;27.458;2024-02-15T07:00:56;101665.50;;;7.96;70.94
23419;BME280;11882;42.522;27.458;2024-02-15T07:03:24;101664.38;;;7.89;71.45
23419;BME280;11882;42.522;27.458;2024-02-15T07:05:51;101661.47;;;8.02;70.80
23419;BME280;11882;42.522;27.458;2024-02-15T07:08:18;101660.06;;;8.07;69.98
23419;BME280;11882;42.522;27.458;2024-02-15T07:10:45;101663.81;;;7.95;70.31
23419;BME280;11882;42.522;27.458;2024-02-15T07:13:12;101653.50;;;7.92;70.24
23419;BME280;11882;42.522;27.458;2024-02-15T07:15:41;101657.56;;;8.06;71.07
23419;BME280;11882;42.522;27.458;2024-02-15T07:18:10;101654.78;;;8.17;69.96
23419;BME280;11882;42.522;27.458;2024-02-15T07:20:39;101644.59;;;8.22;70.09
23419;BME280;11882;42.522;27.458;2024-02-15T07:23:07;101643.88;;;8.11;70.25
23419;BME280;11882;42.522;27.458;2024-02-15T07:25:34;101634.25;;;8.09;70.89
23419;BME280;11882;42.522;27.458;2024-02-15T07:28:05;101635.50;;;8.25;70.39
23419;BME280;11882;42.522;27.458;2024-02-15T07:30:33;101634.41;;;8.27;70.08
23419;BME280;11882;42.522;27.458;2024-02-15T07:33:04;101628.25;;;8.17;69.88
23419;BME280;11882;42.522;27.458;2024-02-15T07:35:32;101622.13;;;8.17;70.51
23419;BME280;11882;42.522;27.458;2024-02-15T07:38:00;101629.66;;;8.31;69.91
23419;BME280;11882;42.522;27.458;2024-02-15T07:40:28;101617.78;;;8.25;69.23
23419;BME280;11882;42.522;27.458;2024-02-15T07:42:56;101620.88;;;8.21;69.66
23419;BME280;11882;42.522;27.458;2024-02-15T07:45:24;101629.09;;;8.18;70.07
23419;BME280;11882;42.522;27.458;2024-02-15T07:47:51;101621.88;;;8.39;69.87
23419;BME280;11882;42.522;27.458;2024-02-15T07:50:20;101631.06;;;8.45;69.63
23419;BME280;11882;42.522;27.458;2024-02-15T07:52:48;101626.03;;;8.42;69.10
23419;BME280;11882;42.522;27.458;2024-02-15T07:55:16;101627.44;;;8.36;69.57
23419;BME280;11882;42.522;27.458;2024-02-15T07:57:44;101628.97;;;8.48;69.68
23419;BME280;11882;42.522;27.458;2024-02-15T08:00:12;101622.41;;;8.52;69.37
23419;BME280;11882;42.522;27.458;2024-02-15T08:02:42;101617.13;;;8.43;68.71
23419;BME280;11882;42.522;27.458;2024-02-15T08:05:10;101614.72;;;8.30;69.12
23419;BME280;11882;42.522;27.458;2024-02-15T08:07:41;101609.56;;;8.48;68.73
23419;BME280;11882;42.522;27.458;2024-02-15T08:10:10;101611.78;;;8.62;68.11
23419;BME280;11882;42.522;27.458;2024-02-15T08:12:42;101609.16;;;8.52;68.48
23419;BME280;11882;42.522;27.458;2024-02-15T08:15:10;101602.03;;;8.43;68.91
23419;BME280;11882;42.522;27.458;2024-02-15T08:17:39;101609.25;;;8.60;68.03
23419;BME280;11882;42.522;27.458;2024-02-15T08:20:07;101611.63;;;8.63;67.70
23419;BME280;11882;42.522;27.458;2024-02-15T08:22:35;101598.09;;;8.57;68.47
23419;BME280;11882;42.522;27.458;2024-02-15T08:25:07;101595.19;;;8.40;68.25
23419;BME280;11882;42.522;27.458;2024-02-15T08:27:37;101601.03;;;8.54;68.28
23419;BME280;11882;42.522;27.458;2024-02-15T08:30:08;101597.38;;;8.64;67.94
23419;BME280;11882;42.522;27.458;2024-02-15T08:32:36;101597.81;;;8.60;68.61
23419;BME280;11882;42.522;27.458;2024-02-15T08:35:05;101606.50;;;8.52;68.50
23419;BME280;11882;42.522;27.458;2024-02-15T08:37:33;101597.97;;;8.58;68.84
23419;BME280;11882;42.522;27.458;2024-02-15T08:40:01;101592.50;;;8.69;67.60
23419;BME280;11882;42.522;27.458;2024-02-15T08:42:30;101596.41;;;8.65;67.42
23419;BME280;11882;42.522;27.458;2024-02-15T08:44:57;101587.34;;;8.58;68.14
23419;BME280;11882;42.522;27.458;2024-02-15T08:47:25;101589.16;;;8.58;68.28
23419;BME280;11882;42.522;27.458;2024-02-15T08:49:52;101584.50;;;8.79;68.08
23419;BME280;11882;42.522;27.458;2024-02-15T08:52:19;101602.13;;;8.70;66.95
23419;BME280;11882;42.522;27.458;2024-02-15T08:54:47;101605.34;;;8.64;67.50
23419;BME280;11882;42.522;27.458;2024-02-15T08:57:14;101603.38;;;8.66;67.95
23419;BME280;11882;42.522;27.458;2024-02-15T08:59:43;101607.84;;;8.76;67.07
23419;BME280;11882;42.522;27.458;2024-02-15T09:02:10;101605.75;;;8.69;67.15
23419;BME280;11882;42.522;27.458;2024-02-15T09:04:37;101606.75;;;8.59;67.59
23419;BME280;11882;42.522;27.458;2024-02-15T09:07:06;101593.91;;;8.54;68.05
23419;BME280;11882;42.522;27.458;2024-02-15T09:09:34;101598.63;;;8.70;67.58
23419;BME280;11882;42.522;27.458;2024-02-15T09:12:02;101600.84;;;8.75;67.66
23419;BME280;11882;42.522;27.458;2024-02-15T09:14:31;101601.59;;;8.57;67.52
23419;BME280;11882;42.522;27.458;2024-02-15T09:17:01;101598.66;;;8.60;68.32
23419;BME280;11882;42.522;27.458;2024-02-15T09:19:33;101590.66;;;8.80;67.78
23419;BME280;11882;42.522;27.458;2024-02-15T09:22:00;101600.81;;;8.84;67.51
23419;BME280;11882;42.522;27.458;2024-02-15T09:24:30;101593.72;;;8.75;67.50
23419;BME280;11882;42.522;27.458;2024-02-15T09:26:59;101594.16;;;8.70;67.77
23419;BME280;11882;42.522;27.458;2024-02-15T09:29:27;101595.09;;;8.89;67.97
23419;BME280;11882;42.522;27.458;2024-02-15T09:31:55;101584.88;;;8.94;67.06
23419;BME280;11882;42.522;27.458;2024-02-15T09:34:24;101582.66;;;8.89;67.07
23419;BME280;11882;42.522;27.458;2024-02-15T09:36:51;101585.88;;;8.83;66.71
23419;BME280;11882;42.522;27.458;2024-02-15T09:39:18;101589.16;;;9.04;66.27
23419;BME280;11882;42.522;27.458;2024-02-15T09:41:46;101571.13;;;9.08;67.04
23419;BME280;11882;42.522;27.458;2024-02-15T09:44:19;101580.66;;;9.01;65.73
23419;BME280;11882;42.522;27.458;2024-02-15T09:46:47;101575.34;;;9.01;66.47
23419;BME280;11882;42.522;27.458;2024-02-15T09:49:20;101580.41;;;9.22;66.51
23419;BME280;11882;42.522;27.458;2024-02-15T09:51:49;101576.22;;;9.19;65.89
23419;BME280;11882;42.522;27.458;2024-02-15T09:54:17;101578.09;;;9.09;65.60
23419;BME280;11882;42.522;27.458;2024-02-15T09:56:48;101579.78;;;9.10;65.75
23419;BME280;11882;42.522;27.458;2024-02-15T09:59:16;101576.34;;;9.27;65.34
23419;BME280;11882;42.522;27.458;2024-02-15T10:01:46;101570.44;;;9.33;64.92
23419;BME280;11882;42.522;27.458;2024-02-15T10:04:14;101576.34;;;9.27;65.18
23419;BME280;11882;42.522;27.458;2024-02-15T10:06:41;101573.31;;;9.13;64.96
23419;BME280;11882;42.522;27.458;2024-02-15T10:09:26;101581.75;;;9.35;64.38
23419;BME280;11882;42.522;27.458;2024-02-15T10:11:55;101584.63;;;9.42;63.93
23419;BME280;11882;42.522;27.458;2024-02-15T10:14:23;101591.63;;;9.43;64.37
23419;BME280;11882;42.522;27.458;2024-02-15T10:16:51;101591.03;;;9.49;64.76
23419;BME280;11882;42.522;27.458;2024-02-15T10:19:19;101580.56;;;9.65;64.21
23419;BME280;11882;42.522;27.458;2024-02-15T10:21:51;101590.75;;;9.70;63.90
23419;BME280;11882;42.522;27.458;2024-02-15T10:24:21;101587.22;;;9.52;63.76
23419;BME280;11882;42.522;27.458;2024-02-15T10:26:51;101583.53;;;9.62;64.44
23419;BME280;11882;42.522;27.458;2024-02-15T10:29:19;101584.53;;;9.79;63.87
23419;BME280;11882;42.522;27.458;2024-02-15T10:34:43;101582.00;;;9.60;64.83
23419;BME280;11882;42.522;27.458;2024-02-15T10:37:12;101589.22;;;9.67;63.92
23419;BME280;11882;42.522;27.458;2024-02-15T10:39:40;101588.09;;;9.70;63.21
23419;BME280;11882;42.522;27.458;2024-02-15T10:42:09;101598.19;;;9.66;63.96
23419;BME280;11882;42.522;27.458;2024-02-15T10:44:38;101590.22;;;9.66;64.34
23419;BME280;11882;42.522;27.458;2024-02-15T10:47:07;101591.66;;;9.79;63.64
23419;BME280;11882;42.522;27.458;2024-02-15T10:49:35;101593.34;;;9.80;64.35
23419;BME280;11882;42.522;27.458;2024-02-15T10:52:04;101589.78;;;9.71;64.68
23419;BME280;11882;42.522;27.458;2024-02-15T10:54:43;101587.66;;;9.75;65.18
23419;BME280;11882;42.522;27.458;2024-02-15T10:57:19;101586.59;;;9.85;64.13
23419;BME280;11882;42.522;27.458;2024-02-15T10:59:54;101586.66;;;9.76;63.31
23419;BME280;11882;42.522;27.458;2024-02-15T11:02:29;101583.63;;;9.70;63.57
23419;BME280;11882;42.522;27.458;2024-02-15T11:05:02;101586.66;;;9.76;64.08
23419;BME280;11882;42.522;27.458;2024-02-15T11:07:31;101582.09;;;9.86;63.42
23419;BME280;11882;42.522;27.458;2024-02-15T11:09:59;101575.41;;;9.82;64.40
23419;BME280;11882;42.522;27.458;2024-02-15T11:12:29;101573.81;;;9.71;65.01
23419;BME280;11882;42.522;27.458;2024-02-15T11:14:56;101572.00;;;9.89;64.83
23419;BME280;11882;42.522;27.458;2024-02-15T11:17:44;101574.75;;;9.97;64.78
23419;BME280;11882;42.522;27.458;2024-02-15T11:20:48;101577.16;;;9.91;65.30
23419;BME280;11882;42.522;27.458;2024-02-15T11:23:28;101574.44;;;10.00;65.38
23419;BME280;11882;42.522;27.458;2024-02-15T11:25:56;101562.88;;;10.10;65.00
23419;BME280;11882;42.522;27.458;2024-02-15T11:28:43;101566.16;;;10.03;65.12
23419;BME280;11882;42.522;27.458;2024-02-15T11:34:44;101547.81;;;10.18;64.97
23419;BME280;11882;42.522;27.458;2024-02-15T11:37:52;101553.91;;;10.11;65.35
23419;BME280;11882;42.522;27.458;2024-02-15T11:40:20;101548.84;;;9.99;66.14
23419;BME280;11882;42.522;27.458;2024-02-15T11:42:49;101537.19;;;10.18;66.22
23419;BME280;11882;42.522;27.458;2024-02-15T11:45:18;101541.75;;;10.26;65.55
23419;BME280;11882;42.522;27.458;2024-02-15T11:47:47;101548.13;;;10.15;65.97
23419;BME280;11882;42.522;27.458;2024-02-15T11:50:16;101542.38;;;10.20;66.30
23419;BME280;11882;42.522;27.458;2024-02-15T11:52:44;101546.78;;;10.29;65.57
23419;BME280;11882;42.522;27.458;2024-02-15T11:55:17;101530.19;;;10.17;66.42
23419;BME280;11882;42.522;27.458;2024-02-15T11:57:54;101535.97;;;10.13;66.39
23419;BME280;11882;42.522;27.458;2024-02-15T12:00:30;101524.13;;;10.25;65.46
23419;BME280;11882;42.522;27.458;2024-02-15T12:03:15;101527.47;;;10.27;65.82
23419;BME280;11882;42.522;27.458;2024-02-15T12:06:00;101534.00;;;10.15;66.08
23419;BME280;11882;42.522;27.458;2024-02-15T12:08:45;101533.00;;;10.16;66.16
23419;BME280;11882;42.522;27.458;2024-02-15T12:11:29;101527.84;;;10.32;66.35
23419;BME280;11882;42.522;27.458;2024-02-15T12:17:37;101512.81;;;10.23;66.05
23419;BME280;11882;42.522;27.458;2024-02-15T12:20:21;101522.66;;;10.30;66.16
23419;BME280;11882;42.522;27.458;2024-02-15T12:22:51;101530.03;;;10.19;67.20
23419;BME280;11882;42.522;27.458;2024-02-15T12:25:19;101520.78;;;10.05;68.20
23419;BME280;11882;42.522;27.458;2024-02-15T12:27:53;101521.94;;;10.20;67.64
23419;BME280;11882;42.522;27.458;2024-02-15T12:30:20;101526.16;;;10.31;67.21
23419;BME280;11882;42.522;27.458;2024-02-15T12:32:49;101519.13;;;10.22;66.95
23419;BME280;11882;42.522;27.458;2024-02-15T12:35:19;101522.63;;;10.22;67.42
23419;BME280;11882;42.522;27.458;2024-02-15T12:37:48;101524.66;;;10.28;67.28
23419;BME280;11882;42.522;27.458;2024-02-15T12:40:18;101528.47;;;10.26;67.05
23419;BME280;11882;42.522;27.458;2024-02-15T12:42:46;101529.81;;;10.12;67.65
23419;BME280;11882;42.522;27.458;2024-02-15T12:45:17;101531.75;;;10.20;68.21
23419;BME280;11882;42.522;27.458;2024-02-15T12:47:47;101529.81;;;10.30;67.97
23419;BME280;11882;42.522;27.458;2024-02-15T12:50:17;101528.09;;;10.21;68.12
23419;BME280;11882;42.522;27.458;2024-02-15T12:52:45;101524.59;;;10.02;68.72
23419;BME280;11882;42.522;27.458;2024-02-15T12:55:15;101531.03;;;10.18;68.32
23419;BME280;11882;42.522;27.458;2024-02-15T12:57:44;101527.09;;;10.22;68.59
23419;BME280;11882;42.522;27.458;2024-02-15T13:00:14;101529.59;;;10.23;67.94
23419;BME280;11882;42.522;27.458;2024-02-15T13:02:45;101532.41;;;10.22;67.38
23419;BME280;11882;42.522;27.458;2024-02-15T13:05:16;101517.03;;;10.33;66.90
23419;BME280;11882;42.522;27.458;2024-02-15T13:07:45;101529.66;;;10.31;67.14
23419;BME280;11882;42.522;27.458;2024-02-15T13:10:13;101526.03;;;10.15;67.21